createdAt,value
2018-03-20T00:00:14.241Z,97491.23
2018-03-20T00:02:42.057Z,97490.86
2018-03-20T00:05:10.386Z,97485.64
2018-03-20T00:07:38.025Z,97486.41
2018-03-20T00:10:06.595Z,97486.16
2018-03-20T00:12:34.446Z,97487.27
2018-03-20T00:15:02.097Z,97491.40
2018-03-20T00:17:29.801Z,97493.41
2018-03-20T00:19:57.331Z,97497.56
2018-03-20T00:22:24.906Z,97495.75
2018-03-20T00:24:52.516Z,97499.65
2018-03-20T00:27:20.207Z,97488.34
2018-03-20T00:29:47.842Z,97495.99
2018-03-20T00:32:15.412Z,97493.81
2018-03-20T00:34:42.957Z,97490.81
2018-03-20T00:37:10.786Z,97490.67
2018-03-20T00:39:38.507Z,97490.23
2018-03-20T00:42:06.322Z,97503.78
2018-03-20T00:44:33.942Z,97496.70
2018-03-20T00:47:01.555Z,97498.98
2018-03-20T00:49:29.095Z,97493.81
2018-03-20T00:51:57.201Z,97504.05
2018-03-20T00:54:24.742Z,97500.83
2018-03-20T00:56:52.413Z,97504.78
2018-03-20T00:59:20.032Z,97510.25
2018-03-20T01:01:47.876Z,97506.06
2018-03-20T01:04:15.544Z,97512.30
2018-03-20T01:06:43.254Z,97524.16
2018-03-20T01:09:10.893Z,97516.80
2018-03-20T01:11:38.447Z,97525.41
2018-03-20T01:14:06.116Z,97514.69
2018-03-20T01:16:34.615Z,97517.29
2018-03-20T01:19:02.191Z,97514.71
2018-03-20T01:21:29.866Z,97514.77
2018-03-20T01:23:57.493Z,97504.07
2018-03-20T01:26:25.331Z,97506.10
2018-03-20T01:28:52.916Z,97507.63
2018-03-20T01:31:20.570Z,97500.14
2018-03-20T01:33:48.591Z,97506.30
2018-03-20T01:36:16.201Z,97513.02
2018-03-20T01:38:44.030Z,97509.09
2018-03-20T01:41:11.637Z,97504.12
2018-03-20T01:43:39.182Z,97508.75
2018-03-20T01:46:06.900Z,97503.80
2018-03-20T01:48:34.512Z,97507.47
2018-03-20T01:51:02.250Z,97506.92
2018-03-20T01:53:30.052Z,97501.00
2018-03-20T01:55:57.821Z,97507.70
2018-03-20T01:58:26.191Z,97505.95
2018-03-20T02:00:53.725Z,97503.44
2018-03-20T02:03:21.650Z,97504.81
2018-03-20T02:05:49.324Z,97505.58
2018-03-20T02:08:17.001Z,97510.69
2018-03-20T02:10:44.696Z,97510.55
2018-03-20T02:13:12.336Z,97505.88
2018-03-20T02:15:40.017Z,97501.35
2018-03-20T02:18:07.622Z,97512.06
2018-03-20T02:20:35.158Z,97508.81
2018-03-20T02:23:02.800Z,97509.96
2018-03-20T02:25:30.565Z,97511.30
2018-03-20T02:27:58.307Z,97518.27
2018-03-20T02:30:26.097Z,97522.50
2018-03-20T02:32:53.826Z,97513.65
2018-03-20T02:35:21.357Z,97522.02
2018-03-20T02:37:49.160Z,97518.55
2018-03-20T02:40:16.706Z,97524.82
2018-03-20T02:42:44.394Z,97519.13
2018-03-20T02:45:12.333Z,97522.83
2018-03-20T02:47:39.956Z,97521.86
2018-03-20T02:50:07.615Z,97533.00
2018-03-20T02:52:35.206Z,97534.14
2018-03-20T02:55:03.158Z,97543.56
2018-03-20T02:57:30.991Z,97544.38
2018-03-20T02:59:58.635Z,97547.44
2018-03-20T03:02:26.287Z,97547.84
2018-03-20T03:04:54.116Z,97549.91
2018-03-20T03:07:22.540Z,97550.39
2018-03-20T03:09:50.215Z,97551.58
2018-03-20T03:12:18.294Z,97553.16
2018-03-20T03:14:46.556Z,97555.98
2018-03-20T03:17:14.379Z,97555.20
2018-03-20T03:19:42.222Z,97558.59
2018-03-20T03:22:09.976Z,97557.38
2018-03-20T03:24:37.830Z,97557.92
2018-03-20T03:27:05.522Z,97559.81
2018-03-20T03:29:33.115Z,97565.62
2018-03-20T03:32:00.956Z,97571.23
2018-03-20T03:34:28.515Z,97572.39
2018-03-20T03:36:56.096Z,97571.56
2018-03-20T03:39:23.946Z,97575.77
2018-03-20T03:41:51.607Z,97572.98
2018-03-20T03:44:19.875Z,97576.71
2018-03-20T03:46:47.570Z,97577.13
2018-03-20T03:49:15.349Z,97583.02
2018-03-20T03:51:43.961Z,97588.28
2018-03-20T03:54:11.579Z,97589.94
2018-03-20T03:56:39.155Z,97588.20
2018-03-20T03:59:06.871Z,97602.34
2018-03-20T04:01:34.466Z,97596.78
2018-03-20T04:04:02.107Z,97601.08
2018-03-20T04:06:29.745Z,97602.39
2018-03-20T04:08:57.350Z,97605.85
2018-03-20T04:11:24.971Z,97612.30
2018-03-20T04:13:52.770Z,97606.63
2018-03-20T04:16:20.286Z,97614.64
2018-03-20T04:18:48.015Z,97618.53
2018-03-20T04:21:15.717Z,97615.75
2018-03-20T04:23:43.452Z,97609.31
2018-03-20T04:26:11.065Z,97615.66
2018-03-20T04:28:38.879Z,97623.63
2018-03-20T04:31:06.733Z,97625.91
2018-03-20T04:33:34.380Z,97626.14
2018-03-20T04:36:02.031Z,97630.38
2018-03-20T04:38:29.727Z,97628.58
2018-03-20T04:40:57.302Z,97625.02
2018-03-20T04:43:25.510Z,97619.36
2018-03-20T04:45:53.176Z,97626.58
2018-03-20T04:48:20.722Z,97626.82
2018-03-20T04:50:48.317Z,97631.61
2018-03-20T04:53:15.999Z,97638.41
2018-03-20T04:55:43.551Z,97629.59
2018-03-20T04:58:11.185Z,97629.75
2018-03-20T05:00:38.740Z,97633.71
2018-03-20T05:03:06.386Z,97629.03
2018-03-20T05:05:34.708Z,97634.05
2018-03-20T05:08:02.271Z,97642.47
2018-03-20T05:10:29.807Z,97648.34
2018-03-20T05:12:57.520Z,97648.04
2018-03-20T05:15:25.240Z,97653.30
2018-03-20T05:17:54.266Z,97656.99
2018-03-20T05:20:27.479Z,97657.42
2018-03-20T05:23:00.577Z,97658.82
2018-03-20T05:25:28.201Z,97664.11
2018-03-20T05:27:55.845Z,97667.78
2018-03-20T05:30:23.716Z,97677.17
2018-03-20T05:32:51.401Z,97680.66
2018-03-20T05:35:19.049Z,97676.34
2018-03-20T05:37:46.815Z,97681.56
2018-03-20T05:40:14.629Z,97685.13
2018-03-20T05:42:42.196Z,97685.03
2018-03-20T05:45:10.007Z,97690.71
2018-03-20T05:47:43.755Z,97694.70
2018-03-20T05:50:17.005Z,97698.91
2018-03-20T05:52:44.536Z,97696.75
2018-03-20T05:55:12.153Z,97695.95
2018-03-20T05:57:39.755Z,97693.56
2018-03-20T06:00:07.547Z,97689.55
2018-03-20T06:02:35.102Z,97691.48
2018-03-20T06:05:02.673Z,97691.64
2018-03-20T06:07:30.323Z,97694.89
2018-03-20T06:09:58.060Z,97690.84
2018-03-20T06:12:25.730Z,97693.29
2018-03-20T06:14:53.340Z,97703.20
2018-03-20T06:17:20.873Z,97708.08
2018-03-20T06:19:49.092Z,97731.74
2018-03-20T06:22:16.916Z,97745.80
2018-03-20T06:24:44.581Z,97746.30
2018-03-20T06:27:12.175Z,97740.58
2018-03-20T06:29:40.360Z,97754.25
2018-03-20T06:32:07.910Z,97760.50
2018-03-20T06:34:35.667Z,97760.66
2018-03-20T06:37:03.202Z,97770.02
2018-03-20T06:39:31.095Z,97775.08
2018-03-20T06:41:58.806Z,97780.66
2018-03-20T06:44:26.511Z,97776.00
2018-03-20T06:46:54.162Z,97780.20
2018-03-20T06:49:21.756Z,97787.52
2018-03-20T06:51:49.427Z,97791.73
2018-03-20T06:54:17.060Z,97797.23
2018-03-20T06:56:44.902Z,97806.96
2018-03-20T06:59:12.441Z,97810.83
2018-03-20T07:01:40.021Z,97801.83
2018-03-20T07:04:07.558Z,97807.16
2018-03-20T07:06:35.297Z,97812.97
2018-03-20T07:09:03.303Z,97812.49
2018-03-20T07:11:30.932Z,97817.09
2018-03-20T07:13:58.583Z,97819.70
2018-03-20T07:16:26.220Z,97823.47
2018-03-20T07:18:54.115Z,97819.56
2018-03-20T07:21:21.780Z,97814.36
2018-03-20T07:23:49.668Z,97821.50
2018-03-20T07:26:17.286Z,97828.32
2018-03-20T07:28:44.906Z,97830.36
2018-03-20T07:31:13.431Z,97834.16
2018-03-20T07:33:41.042Z,97846.19
2018-03-20T07:36:08.711Z,97846.78
2018-03-20T07:38:36.276Z,97846.69
2018-03-20T07:41:04.426Z,97841.75
2018-03-20T07:43:32.077Z,97841.11
2018-03-20T07:45:59.631Z,97838.31
2018-03-20T07:48:27.277Z,97836.48
2018-03-20T07:50:54.986Z,97843.45
2018-03-20T07:53:22.617Z,97844.92
2018-03-20T07:55:50.502Z,97839.99
2018-03-20T07:58:18.174Z,97844.18
2018-03-20T08:00:45.811Z,97841.42
2018-03-20T08:03:13.981Z,97847.01
2018-03-20T08:05:41.544Z,97849.42
2018-03-20T08:08:09.327Z,97842.28
2018-03-20T08:10:37.045Z,97840.61
2018-03-20T08:13:04.629Z,97852.78
2018-03-20T08:15:32.361Z,97852.27
2018-03-20T08:18:00.483Z,97861.67
2018-03-20T08:20:28.070Z,97852.13
2018-03-20T08:22:55.696Z,97863.04
2018-03-20T08:25:23.260Z,97864.16
2018-03-20T08:27:50.957Z,97857.86
2018-03-20T08:30:19.783Z,97853.39
2018-03-20T08:32:47.397Z,97863.77
2018-03-20T08:35:15.254Z,97855.81
2018-03-20T08:37:42.857Z,97864.37
2018-03-20T08:40:10.481Z,97854.64
2018-03-20T08:42:38.116Z,97863.43
2018-03-20T08:45:05.945Z,97856.75
2018-03-20T08:47:33.651Z,97864.58
2018-03-20T08:50:01.222Z,97867.73
2018-03-20T08:52:28.925Z,97864.14
2018-03-20T08:54:56.479Z,97869.25
2018-03-20T08:57:24.105Z,97856.44
2018-03-20T08:59:51.748Z,97862.93
2018-03-20T09:02:19.528Z,97865.02
2018-03-20T09:04:47.355Z,97868.87
2018-03-20T09:07:15.262Z,97866.05
2018-03-20T09:09:43.044Z,97869.90
2018-03-20T09:12:10.699Z,97868.94
2018-03-20T09:14:38.466Z,97874.22
2018-03-20T09:17:06.091Z,97876.85
2018-03-20T09:19:33.856Z,97870.02
2018-03-20T09:22:01.410Z,97874.00
2018-03-20T09:24:29.146Z,97871.20
2018-03-20T09:26:56.706Z,97865.30
2018-03-20T09:29:24.817Z,97868.19
2018-03-20T09:31:52.530Z,97862.34
2018-03-20T09:34:20.510Z,97871.98
2018-03-20T09:36:48.407Z,97875.30
2018-03-20T09:39:16.300Z,97875.96
2018-03-20T09:41:44.120Z,97871.71
2018-03-20T09:44:12.117Z,97868.52
2018-03-20T09:46:40.532Z,97877.88
2018-03-20T09:49:09.229Z,97875.69
2018-03-20T09:51:36.823Z,97877.25
2018-03-20T09:54:05.166Z,97870.06
2018-03-20T09:56:32.910Z,97878.40
2018-03-20T09:59:00.536Z,97872.54
2018-03-20T10:01:28.245Z,97881.67
2018-03-20T10:03:56.077Z,97881.11
2018-03-20T10:06:23.889Z,97885.45
2018-03-20T10:08:51.572Z,97877.98
2018-03-20T10:11:19.132Z,97886.35
2018-03-20T10:13:47.212Z,97875.91
2018-03-20T10:16:14.793Z,97880.70
2018-03-20T10:18:42.356Z,97881.91
2018-03-20T10:21:10.060Z,97871.61
2018-03-20T10:23:37.776Z,97865.80
2018-03-20T10:26:05.541Z,97876.70
2018-03-20T10:28:33.143Z,97880.99
2018-03-20T10:31:00.889Z,97884.52
2018-03-20T10:33:28.661Z,97878.88
2018-03-20T10:35:57.432Z,97884.38
2018-03-20T10:38:25.801Z,97876.41
2018-03-20T10:40:53.396Z,97875.61
2018-03-20T10:43:21.165Z,97872.86
2018-03-20T10:45:48.773Z,97881.45
2018-03-20T10:48:16.360Z,97878.30
2018-03-20T10:50:44.021Z,97880.00
2018-03-20T10:53:12.631Z,97879.52
2018-03-20T10:55:40.455Z,97891.55
2018-03-20T10:58:08.106Z,97892.13
2018-03-20T11:03:41.864Z,97890.41
2018-03-20T11:06:09.536Z,97891.92
2018-03-20T11:08:37.337Z,97890.05
2018-03-20T11:11:04.901Z,97888.76
2018-03-20T11:13:32.721Z,97890.58
2018-03-20T11:16:00.390Z,97882.02
2018-03-20T11:18:27.945Z,97887.98
2018-03-20T11:20:55.637Z,97882.77
2018-03-20T11:23:23.190Z,97880.27
2018-03-20T11:25:50.752Z,97880.63
2018-03-20T11:28:18.427Z,97883.61
2018-03-20T11:30:46.150Z,97887.22
2018-03-20T11:33:13.880Z,97884.38
2018-03-20T11:35:41.707Z,97891.09
2018-03-20T11:38:09.576Z,97886.31
2018-03-20T11:40:37.120Z,97887.17
2018-03-20T11:43:04.874Z,97890.00
2018-03-20T11:45:32.540Z,97887.75
2018-03-20T11:48:00.320Z,97888.26
2018-03-20T11:50:28.695Z,97894.08
2018-03-20T11:52:56.246Z,97892.95
2018-03-20T11:55:23.826Z,97887.87
2018-03-20T11:57:51.490Z,97897.59
2018-03-20T12:00:19.221Z,97899.80
2018-03-20T12:02:46.942Z,97897.56
2018-03-20T12:05:14.726Z,97909.07
2018-03-20T12:07:53.301Z,97907.49
2018-03-20T12:10:21.077Z,97913.05
2018-03-20T12:12:49.532Z,97911.63
2018-03-20T12:15:17.241Z,97917.40
2018-03-20T12:17:44.897Z,97913.23
2018-03-20T12:20:12.524Z,97917.97
2018-03-20T12:22:40.541Z,97911.62
2018-03-20T12:25:08.186Z,97917.75
2018-03-20T12:27:35.861Z,97917.11
2018-03-20T12:30:03.649Z,97920.85
2018-03-20T12:32:31.951Z,97921.84
2018-03-20T12:34:59.786Z,97926.27
2018-03-20T12:37:27.500Z,97932.84
2018-03-20T12:39:55.059Z,97942.87
2018-03-20T12:42:22.789Z,97949.95
2018-03-20T12:44:51.095Z,97965.99
2018-03-20T12:47:18.637Z,97961.16
2018-03-20T12:49:46.435Z,97961.28
2018-03-20T12:52:14.266Z,97968.64
2018-03-20T12:54:42.179Z,97961.00
2018-03-20T12:57:09.857Z,97968.11
2018-03-20T12:59:37.601Z,97970.16
2018-03-20T13:02:05.157Z,97975.39
2018-03-20T13:04:33.107Z,97973.00
2018-03-20T13:07:00.782Z,97976.33
2018-03-20T13:09:28.365Z,97975.28
2018-03-20T13:11:56.455Z,97981.96
2018-03-20T13:14:24.421Z,97982.17
2018-03-20T13:16:52.929Z,97986.78
2018-03-20T13:19:20.594Z,97987.33
2018-03-20T13:21:48.449Z,97991.91
2018-03-20T13:24:16.201Z,97999.02
2018-03-20T13:26:43.812Z,98012.00
2018-03-20T13:29:11.575Z,98014.72
2018-03-20T13:31:39.230Z,98025.98
2018-03-20T13:34:07.070Z,98028.88
2018-03-20T13:36:34.751Z,98027.95
2018-03-20T13:39:02.306Z,98035.91
2018-03-20T13:41:29.869Z,98035.47
2018-03-20T13:43:57.540Z,98051.52
2018-03-20T13:46:25.114Z,98068.94
2018-03-20T13:48:53.885Z,98066.17
2018-03-20T13:51:21.740Z,98069.37
2018-03-20T13:53:49.521Z,98069.86
2018-03-20T13:56:17.420Z,98075.98
2018-03-20T13:58:45.386Z,98073.51
2018-03-20T14:01:13.120Z,98079.05
2018-03-20T14:03:40.845Z,98081.98
2018-03-20T14:06:09.019Z,98083.30
2018-03-20T14:08:36.598Z,98085.36
2018-03-20T14:11:04.221Z,98082.89
2018-03-20T14:13:31.851Z,98088.79
2018-03-20T14:15:59.614Z,98084.04
2018-03-20T14:18:27.216Z,98091.17
2018-03-20T14:20:54.955Z,98095.20
2018-03-20T14:23:22.578Z,98099.28
2018-03-20T14:25:50.182Z,98095.23
2018-03-20T14:28:17.746Z,98098.95
2018-03-20T14:30:45.776Z,98100.98
2018-03-20T14:33:13.426Z,98112.31
2018-03-20T14:35:40.957Z,98119.30
2018-03-20T14:38:08.600Z,98116.63
2018-03-20T14:40:36.229Z,98119.86
2018-03-20T14:43:03.790Z,98124.20
2018-03-20T14:45:31.393Z,98124.17
2018-03-20T14:47:58.980Z,98124.95
2018-03-20T14:50:27.180Z,98122.94
2018-03-20T14:52:55.180Z,98131.06
2018-03-20T14:55:22.773Z,98133.09
2018-03-20T14:57:50.331Z,98134.86
2018-03-20T15:00:18.147Z,98134.22
2018-03-20T15:02:45.770Z,98136.17
2018-03-20T15:05:13.491Z,98138.32
2018-03-20T15:07:41.101Z,98147.50
2018-03-20T15:10:09.381Z,98147.80
2018-03-20T15:12:37.770Z,98149.87
2018-03-20T15:15:05.655Z,98156.60
2018-03-20T15:17:33.404Z,98158.13
2018-03-20T15:20:00.941Z,98162.85
2018-03-20T15:22:28.546Z,98158.98
2018-03-20T15:24:56.403Z,98159.21
2018-03-20T15:27:25.115Z,98159.14
2018-03-20T15:29:53.426Z,98168.34
2018-03-20T15:32:21.452Z,98173.36
2018-03-20T15:34:48.990Z,98168.37
2018-03-20T15:37:16.580Z,98169.55
2018-03-20T15:39:44.125Z,98175.22
2018-03-20T15:42:12.121Z,98171.81
2018-03-20T15:44:39.745Z,98179.56
2018-03-20T15:47:07.332Z,98176.38
2018-03-20T15:49:34.907Z,98187.09
2018-03-20T15:52:02.561Z,98192.06
2018-03-20T15:54:30.200Z,98192.55
2018-03-20T15:56:57.735Z,98196.66
2018-03-20T15:59:25.439Z,98199.77
2018-03-20T16:01:52.995Z,98203.83
2018-03-20T16:04:20.621Z,98207.53
2018-03-20T16:06:48.515Z,98210.83
2018-03-20T16:09:16.231Z,98207.34
2018-03-20T16:11:43.730Z,98216.26
2018-03-20T16:14:12.001Z,98216.98
2018-03-20T16:16:39.804Z,98220.30
2018-03-20T16:19:07.600Z,98223.33
2018-03-20T16:21:35.275Z,98227.90
2018-03-20T16:24:03.571Z,98234.41
2018-03-20T16:26:31.352Z,98234.02
2018-03-20T16:28:59.765Z,98240.02
2018-03-20T16:31:27.637Z,98247.95
2018-03-20T16:33:55.308Z,98247.02
2018-03-20T16:36:23.330Z,98247.47
2018-03-20T16:38:50.912Z,98260.77
2018-03-20T16:41:18.669Z,98259.53
2018-03-20T16:43:46.376Z,98256.06
2018-03-20T16:46:13.981Z,98261.97
2018-03-20T16:48:41.641Z,98268.84
2018-03-20T16:51:09.197Z,98266.59
2018-03-20T16:53:39.002Z,98269.45
2018-03-20T16:56:06.578Z,98270.92
2018-03-20T16:58:34.482Z,98278.23
2018-03-20T17:01:02.213Z,98283.64
2018-03-20T17:03:29.981Z,98282.55
2018-03-20T17:05:57.731Z,98296.84
2018-03-20T17:08:25.582Z,98296.64
2018-03-20T17:10:53.450Z,98300.64
2018-03-20T17:13:21.341Z,98309.80
2018-03-20T17:15:49.271Z,98308.06
2018-03-20T17:18:17.132Z,98311.50
2018-03-20T17:20:44.812Z,98319.30
2018-03-20T17:23:12.485Z,98318.09
2018-03-20T17:25:40.055Z,98321.17
2018-03-20T17:28:07.673Z,98330.51
2018-03-20T17:30:35.264Z,98329.63
2018-03-20T17:33:02.964Z,98338.78
2018-03-20T17:35:36.456Z,98335.84
2018-03-20T17:38:04.096Z,98344.70
2018-03-20T17:40:32.669Z,98343.84
2018-03-20T17:43:00.548Z,98352.31
2018-03-20T17:45:28.290Z,98352.03
2018-03-20T17:47:56.081Z,98361.19
2018-03-20T17:50:24.039Z,98365.80
2018-03-20T17:52:51.702Z,98369.16
2018-03-20T17:55:19.354Z,98380.50
2018-03-20T17:57:46.932Z,98383.13
2018-03-20T18:00:15.482Z,98389.15
2018-03-20T18:02:43.257Z,98395.05
2018-03-20T18:05:11.057Z,98400.71
2018-03-20T18:07:38.673Z,98404.39
2018-03-20T18:10:06.254Z,98404.66
2018-03-20T18:12:33.886Z,98410.52
2018-03-20T18:15:01.558Z,98418.20
2018-03-20T18:17:29.262Z,98417.28
2018-03-20T18:19:56.841Z,98420.99
2018-03-20T18:22:24.399Z,98419.30
2018-03-20T18:24:52.081Z,98429.80
2018-03-20T18:27:20.640Z,98431.23
2018-03-20T18:29:48.617Z,98426.48
2018-03-20T18:32:16.481Z,98432.69
2018-03-20T18:34:44.130Z,98432.73
2018-03-20T18:37:11.804Z,98437.56
2018-03-20T18:39:39.542Z,98443.65
2018-03-20T18:42:07.290Z,98456.14
2018-03-20T18:44:35.061Z,98448.61
2018-03-20T18:47:03.047Z,98443.73
2018-03-20T18:49:30.596Z,98451.28
2018-03-20T18:51:59.330Z,98454.41
2018-03-20T18:54:27.074Z,98456.09
2018-03-20T18:56:55.369Z,98462.77
2018-03-20T18:59:23.227Z,98460.92
2018-03-20T19:01:50.782Z,98479.39
2018-03-20T19:04:18.536Z,98477.19
2018-03-20T19:06:46.172Z,98484.78
2018-03-20T19:09:14.285Z,98488.12
2018-03-20T19:11:41.895Z,98495.19
2018-03-20T19:14:09.720Z,98491.84
2018-03-20T19:16:37.489Z,98503.31
2018-03-20T19:19:05.146Z,98508.06
2018-03-20T19:21:32.794Z,98510.13
2018-03-20T19:24:00.695Z,98523.17
2018-03-20T19:26:28.412Z,98520.06
2018-03-20T19:28:56.172Z,98527.95
2018-03-20T19:31:23.942Z,98524.65
2018-03-20T19:33:51.780Z,98528.89
2018-03-20T19:36:19.476Z,98526.50
2018-03-20T19:38:47.320Z,98529.19
2018-03-20T19:41:15.061Z,98536.98
2018-03-20T19:43:42.793Z,98535.92
2018-03-20T19:46:10.597Z,98535.03
2018-03-20T19:48:38.385Z,98542.62
2018-03-20T19:51:06.060Z,98541.31
2018-03-20T19:53:33.837Z,98554.77
2018-03-20T19:56:01.676Z,98553.00
2018-03-20T19:58:29.394Z,98554.23
2018-03-20T20:00:57.328Z,98557.10
2018-03-20T20:03:25.054Z,98558.33
2018-03-20T20:05:52.954Z,98565.23
2018-03-20T20:08:20.534Z,98564.65
2018-03-20T20:10:48.485Z,98572.88
2018-03-20T20:13:16.414Z,98574.28
2018-03-20T20:15:44.233Z,98571.86
2018-03-20T20:18:11.941Z,98573.73
2018-03-20T20:20:39.560Z,98574.18
2018-03-20T20:23:07.121Z,98584.49
2018-03-20T20:25:35.360Z,98583.09
2018-03-20T20:28:02.907Z,98590.86
2018-03-20T20:30:30.730Z,98587.67
2018-03-20T20:32:58.565Z,98592.77
2018-03-20T20:35:26.336Z,98590.65
2018-03-20T20:37:54.036Z,98593.17
2018-03-20T20:40:21.756Z,98594.13
2018-03-20T20:42:49.891Z,98594.54
2018-03-20T20:45:18.140Z,98596.53
2018-03-20T20:47:45.841Z,98596.94
2018-03-20T20:50:13.556Z,98599.73
2018-03-20T20:52:41.221Z,98603.87
2018-03-20T20:55:09.045Z,98600.14
2018-03-20T20:57:36.849Z,98609.00
2018-03-20T21:00:04.788Z,98608.54
2018-03-20T21:02:32.574Z,98603.70
2018-03-20T21:05:00.216Z,98598.19
2018-03-20T21:07:27.941Z,98605.97
2018-03-20T21:09:55.520Z,98607.48
2018-03-20T21:12:23.107Z,98613.09
2018-03-20T21:14:51.470Z,98611.33
2018-03-20T21:17:19.135Z,98611.41
2018-03-20T21:19:46.756Z,98614.05
2018-03-20T21:22:14.521Z,98610.91
2018-03-20T21:24:42.389Z,98616.02
2018-03-20T21:27:09.967Z,98616.69
2018-03-20T21:29:38.111Z,98615.48
2018-03-20T21:32:05.761Z,98617.55
2018-03-20T21:34:33.360Z,98614.44
2018-03-20T21:37:01.071Z,98616.02
2018-03-20T21:39:29.058Z,98614.75
2018-03-20T21:41:56.911Z,98622.05
2018-03-20T21:44:24.459Z,98624.67
2018-03-20T21:46:52.092Z,98623.13
2018-03-20T21:49:19.665Z,98620.06
2018-03-20T21:51:47.634Z,98615.59
2018-03-20T21:54:15.307Z,98623.84
2018-03-20T21:56:42.867Z,98619.30
2018-03-20T21:59:10.495Z,98626.48
2018-03-20T22:01:38.220Z,98624.75
2018-03-20T22:04:05.750Z,98624.16
2018-03-20T22:06:33.296Z,98621.23
2018-03-20T22:09:00.952Z,98621.08
2018-03-20T22:11:29.144Z,98624.42
2018-03-20T22:13:57.576Z,98623.15
2018-03-20T22:16:25.317Z,98625.33
2018-03-20T22:18:53.046Z,98628.88
2018-03-20T22:21:21.313Z,98635.78
2018-03-20T22:23:49.589Z,98634.15
2018-03-20T22:26:17.219Z,98637.70
2018-03-20T22:28:45.179Z,98635.22
2018-03-20T22:31:12.829Z,98637.05
2018-03-20T22:33:40.482Z,98648.34
2018-03-20T22:36:08.712Z,98654.52
2018-03-20T22:38:36.546Z,98646.88
2018-03-20T22:41:04.220Z,98660.33
2018-03-20T22:43:31.879Z,98656.05
2018-03-20T22:45:59.494Z,98664.08
2018-03-20T22:48:28.039Z,98662.20
2018-03-20T22:50:55.766Z,98664.51
2018-03-20T22:53:23.401Z,98653.61
2018-03-20T22:55:51.324Z,98661.19
2018-03-20T22:58:19.165Z,98655.22
2018-03-20T23:00:46.856Z,98664.88
2018-03-20T23:03:14.481Z,98664.42
2018-03-20T23:05:42.096Z,98665.60
2018-03-20T23:08:09.635Z,98668.50
2018-03-20T23:10:37.295Z,98669.41
2018-03-20T23:13:04.898Z,98663.59
2018-03-20T23:15:32.677Z,98664.86
2018-03-20T23:18:00.415Z,98673.00
2018-03-20T23:20:28.189Z,98674.93
2018-03-20T23:22:55.921Z,98678.19
2018-03-20T23:25:23.780Z,98673.77
2018-03-20T23:27:51.731Z,98680.30
2018-03-20T23:30:19.284Z,98676.08
2018-03-20T23:32:46.919Z,98685.91
2018-03-20T23:35:14.596Z,98681.08
2018-03-20T23:37:42.394Z,98680.73
2018-03-20T23:40:09.982Z,98673.50
2018-03-20T23:42:37.696Z,98688.24
2018-03-20T23:45:05.500Z,98685.07
2018-03-20T23:47:34.239Z,98684.41
2018-03-20T23:50:01.796Z,98694.95
2018-03-20T23:52:29.510Z,98703.77
2018-03-20T23:54:57.211Z,98699.72
2018-03-20T23:57:24.814Z,98703.70
2018-03-20T23:59:52.792Z,98700.30
